Monday, December 18, 2017, 4:51 AM CST
Back to Local

KEWK, Newton, Newton City/county Airport

Location: Newton, KS, United States Lat: 38.05
Local Time: 4:51 AM CST (10:51 GMT) Lon: -97.283
Time Zone: US/Central Elev: 1532 ft

Show me the last for .
Show Decoded

2017-12-18 03:56 METAR KEWK 180956Z AUTO 25004KT 8SM CLR M02/M02 A3006 RMK AO2 SLP188 T10171022
                 FZRANO =
2017-12-18 02:56 METAR KEWK 180856Z AUTO 27005KT 8SM CLR M02/M02 A3005 RMK AO2 SLP183 T10221022
                 53000 FZRANO =
2017-12-18 02:18 METAR KEWK 180818Z AUTO 22004KT 3SM BR SCT002 M02/M03 A3004 RMK AO2 FZRANO TSNO
                 =
2017-12-18 01:59 METAR KEWK 180759Z AUTO 22004KT 1 3/4SM BR SCT003 M02/M02 A3005 RMK AO2 FZRANO =
2017-12-18 01:56 METAR KEWK 180756Z AUTO 21005KT 3SM BR FEW003 M01/M02 A3005 RMK AO2 SLP181
                 T10111017 FZRANO =
2017-12-18 00:56 METAR KEWK 180656Z AUTO 25005KT 6SM BR CLR 00/M01 A3005 RMK AO2 SLP180 T00001006
                 FZRANO =
2017-12-17 23:56 METAR KEWK 180556Z AUTO 23006KT 8SM CLR 01/01 A3005 RMK AO2 SLP181 T00110006
                 10050 20011 51007 FZRANO =
2017-12-17 22:56 METAR KEWK 180456Z AUTO 22006KT 10SM CLR 02/01 A3005 RMK AO2 SLP181 T00170011
                 401060017 FZRANO =
2017-12-17 21:56 METAR KEWK 180356Z AUTO 22006KT 10SM CLR 02/02 A3004 RMK AO2 SLP177 T00220017
                 FZRANO =
2017-12-17 20:56 METAR KEWK 180256Z AUTO 19008KT 10SM CLR 03/02 A3003 RMK AO2 SLP176 T00280017
                 51005 =
2017-12-17 19:56 METAR KEWK 180156Z AUTO 19006KT 10SM BKN033 03/02 A3003 RMK AO2 SLP174 T00280017
                 =
2017-12-17 18:56 METAR KEWK 180056Z AUTO 18008KT 10SM OVC031 05/03 A3003 RMK AO2 SLP173 T00500033
                 =
2017-12-17 17:56 METAR KEWK 172356Z AUTO 17008KT 10SM BKN029 04/03 A3002 RMK AO2 SLP169 P0001
                 60001 T00440028 10106 20039 53013 =
2017-12-17 16:56 METAR KEWK 172256Z AUTO 15008KT 10SM SCT021 07/04 A2998 RMK AO2 SLP155 T00670039
                 =
2017-12-17 15:56 METAR KEWK 172156Z AUTO 20009KT 10SM OVC021 08/04 A2999 RMK AO2 SLP158 T00780039
                 =
2017-12-17 14:56 METAR KEWK 172056Z AUTO 20010KT 10SM OVC023 09/04 A2998 RMK AO2 SLP152 T00940044
                 55002 =
2017-12-17 13:56 METAR KEWK 171956Z AUTO 18005KT 10SM OVC019 10/05 A2996 RMK AO2 SLP147 T01000050
                 =
2017-12-17 12:56 METAR KEWK 171856Z AUTO 26006KT 10SM BKN017 11/06 A2998 RMK AO2 SLP154 T01060056
                 =
2017-12-17 12:49 METAR KEWK 171849Z AUTO 25006KT 10SM BKN017 09/05 A2998 RMK AO2 =
2017-12-17 12:09 METAR KEWK 171809Z AUTO 28004KT 10SM FEW016 09/05 A2998 RMK AO2 =
2017-12-17 11:56 METAR KEWK 171756Z AUTO 25005KT 10SM BKN016 09/05 A2998 RMK AO2 SLP153 T00940050
                 10094 20050 58015 =
2017-12-17 11:45 METAR KEWK 171745Z AUTO VRB04KT 10SM BKN016 09/05 A2999 RMK AO2 =
2017-12-17 10:56 METAR KEWK 171656Z AUTO 26007KT 220V290 10SM SCT012 08/04 A3000 RMK AO2 SLP161
                 T00830044 =
2017-12-17 09:56 METAR KEWK 171556Z AUTO 24012KT 10SM FEW010 07/04 A3002 RMK AO2 SLP166 T00670044
                 =
2017-12-17 08:56 METAR KEWK 171456Z AUTO 22011KT 10SM FEW008 BKN048 05/04 A3003 RMK AO2 SLP170
                 T00500039 51020 =
2017-12-17 07:56 METAR KEWK 171356Z AUTO 21012KT 10SM OVC008 05/04 A3002 RMK AO2 SLP165 T00500039
                 =
2017-12-17 06:56 METAR KEWK 171256Z AUTO 21007KT 10SM OVC008 06/04 A2997 RMK AO2 CIG 007V011
                 SLP148 T00560044 =
2017-12-17 06:33 METAR KEWK 171233Z AUTO 21011KT 10SM OVC008 06/04 A2997 RMK AO2 =
2017-12-17 05:56 METAR KEWK 171156Z AUTO 19012KT 10SM OVC010 06/04 A2996 RMK AO2 SLP146 P0001
                 60002 70002 T00560044 10078 20050 53009 =
2017-12-17 04:56 METAR KEWK 171056Z AUTO 19011KT 10SM OVC010 06/04 A2994 RMK AO2 SLP139 T00560044
                 =

Support USWX by starting your Amazon purchase here.